Time;durP1;ratioP1;P1;durP2;ratioP2;P2;SDS_P1;SDS_P2;PMS_P1;PMS_P2;Temp;Humidity;BMP_temperature;BMP_pressure;BME280_temperature;BME280_humidity;BME280_pressure;Samples;Min_cycle;Max_cycle;Signal;HPM_P1;HPM_P2
2023/12/02 00:01:19;;;;;;;0.05;0.05;;;1.30;85.50;;;;;;5030527;28;20411;-69
2023/12/02 00:03:45;;;;;;;0.00;0.00;;;1.40;85.60;;;;;;5015531;28;20046;-69
2023/12/02 00:06:11;;;;;;;0.03;0.03;;;1.30;85.60;;;;;;5009829;28;20046;-69
2023/12/02 00:08:37;;;;;;;0.10;0.10;;;1.30;85.50;;;;;;5008289;28;20050;-69
2023/12/02 00:11:03;;;;;;;0.00;0.00;;;1.30;85.60;;;;;;5011459;28;20050;-69
2023/12/02 00:13:28;;;;;;;0.00;0.00;;;1.30;85.60;;;;;;5012802;28;20052;-69
2023/12/02 00:15:54;;;;;;;1.45;0.80;;;1.30;85.50;;;;;;5015539;28;20042;-69
2023/12/02 00:18:20;;;;;;;0.00;0.00;;;1.20;85.20;;;;;;5025433;28;20049;-69
2023/12/02 00:20:46;;;;;;;0.00;0.00;;;1.20;85.40;;;;;;5034218;28;20644;-69
2023/12/02 00:23:11;;;;;;;0.28;0.28;;;1.20;85.50;;;;;;5030486;28;20052;-69
2023/12/02 00:25:37;;;;;;;0.00;0.00;;;1.20;85.50;;;;;;5014942;28;20520;-69
2023/12/02 00:28:03;;;;;;;0.10;0.10;;;1.30;85.50;;;;;;5013872;28;20041;-69
2023/12/02 00:30:28;;;;;;;0.00;0.00;;;1.20;85.40;;;;;;5014792;28;20121;-70
2023/12/02 00:32:54;;;;;;;0.00;0.00;;;1.20;85.50;;;;;;5015526;28;20053;-69
2023/12/02 00:35:19;;;;;;;0.00;0.00;;;1.20;85.50;;;;;;5021441;28;20503;-69
2023/12/02 00:37:45;;;;;;;0.00;0.00;;;1.20;85.50;;;;;;5014929;28;20050;-69
2023/12/02 00:40:11;;;;;;;0.00;0.00;;;1.20;85.50;;;;;;5005984;28;20045;-69
2023/12/02 00:42:36;;;;;;;0.00;0.00;;;1.20;85.60;;;;;;5012781;28;20040;-69
2023/12/02 00:45:02;;;;;;;0.00;0.00;;;1.20;85.60;;;;;;5008728;28;20095;-69
2023/12/02 00:47:28;;;;;;;0.00;0.00;;;1.30;85.70;;;;;;5009894;28;20046;-69
2023/12/02 00:49:53;;;;;;;0.10;0.10;;;1.30;85.70;;;;;;5011505;28;20566;-69
2023/12/02 00:52:19;;;;;;;0.00;0.00;;;1.30;85.70;;;;;;5011203;28;20046;-69
2023/12/02 00:54:45;;;;;;;0.00;0.00;;;1.30;85.70;;;;;;5011110;28;20046;-69
2023/12/02 00:57:10;;;;;;;0.10;0.10;;;1.30;85.80;;;;;;5011093;28;20054;-69
2023/12/02 00:59:36;;;;;;;0.00;0.00;;;1.30;85.70;;;;;;5011422;28;20423;-69
2023/12/02 01:02:02;;;;;;;0.00;0.00;;;1.40;85.80;;;;;;5011145;28;20060;-70
2023/12/02 01:04:27;;;;;;;0.10;0.10;;;1.40;85.80;;;;;;5009195;28;20088;-69
2023/12/02 01:06:53;;;;;;;0.00;0.00;;;1.40;85.90;;;;;;5010986;28;20077;-69
2023/12/02 01:09:19;;;;;;;0.00;0.00;;;1.50;85.80;;;;;;5011148;28;20052;-69
2023/12/02 01:11:44;;;;;;;0.00;0.00;;;1.50;85.80;;;;;;4996072;28;20038;-69
2023/12/02 01:14:10;;;;;;;0.00;0.00;;;1.50;85.80;;;;;;5014318;28;20095;-69
2023/12/02 01:16:35;;;;;;;0.00;0.00;;;1.50;85.80;;;;;;5012851;28;20420;-69
2023/12/02 01:19:01;;;;;;;0.00;0.00;;;1.50;85.80;;;;;;5008971;28;20557;-69
2023/12/02 01:21:27;;;;;;;0.00;0.00;;;1.50;85.80;;;;;;5010797;28;20050;-69
2023/12/02 01:23:52;;;;;;;0.00;0.00;;;1.60;85.90;;;;;;5010985;28;20046;-69
2023/12/02 01:26:18;;;;;;;0.00;0.00;;;1.60;85.90;;;;;;5009755;28;20050;-69
2023/12/02 01:28:44;;;;;;;0.10;0.10;;;1.60;85.90;;;;;;5010055;28;20050;-69
2023/12/02 01:31:09;;;;;;;0.00;0.00;;;1.60;85.90;;;;;;5010742;28;20489;-69
2023/12/02 01:33:35;;;;;;;0.40;0.40;;;1.60;85.90;;;;;;5009626;28;20054;-69
2023/12/02 01:36:00;;;;;;;0.00;0.00;;;1.60;85.80;;;;;;5009336;28;20057;-69
2023/12/02 01:38:26;;;;;;;0.00;0.00;;;1.60;85.80;;;;;;5012993;28;20133;-69
2023/12/02 01:40:52;;;;;;;0.00;0.00;;;1.60;85.80;;;;;;5013542;28;20045;-69
2023/12/02 01:43:25;;;;;;;3.90;0.60;;;1.60;85.80;;;;;;5014062;28;20389;-69
2023/12/02 01:45:51;;;;;;;0.00;0.00;;;1.60;85.70;;;;;;5013551;28;20045;-69
2023/12/02 01:48:22;;;;;;;0.00;0.00;;;1.60;85.80;;;;;;5012311;28;20108;-69
2023/12/02 01:50:48;;;;;;;0.00;0.00;;;1.60;85.80;;;;;;5011811;28;20172;-69
2023/12/02 01:53:14;;;;;;;0.03;0.03;;;1.50;85.80;;;;;;5010723;28;20379;-69
2023/12/02 01:55:40;;;;;;;10.43;3.92;;;1.50;85.70;;;;;;5011683;28;20520;-69
2023/12/02 01:58:05;;;;;;;0.00;0.00;;;1.50;85.70;;;;;;5009748;28;20053;-69
2023/12/02 02:00:31;;;;;;;0.00;0.00;;;1.50;85.80;;;;;;5010251;28;20046;-69
2023/12/02 02:02:57;;;;;;;0.03;0.03;;;1.40;85.80;;;;;;5012357;28;20042;-70
2023/12/02 02:05:22;;;;;;;0.10;0.10;;;1.40;85.80;;;;;;5013200;28;20423;-69
2023/12/02 02:07:48;;;;;;;0.00;0.00;;;1.40;85.80;;;;;;5011639;28;20121;-69
2023/12/02 02:10:13;;;;;;;0.40;0.40;;;1.30;85.80;;;;;;5012858;28;20052;-69
2023/12/02 02:12:39;;;;;;;0.00;0.00;;;1.40;85.80;;;;;;5013187;28;20049;-69
2023/12/02 02:15:05;;;;;;;0.00;0.00;;;1.30;85.90;;;;;;5012301;28;20041;-69
2023/12/02 02:17:31;;;;;;;0.00;0.00;;;1.30;85.90;;;;;;5012443;28;20049;-69
2023/12/02 02:19:57;;;;;;;0.10;0.10;;;1.30;85.90;;;;;;5012170;28;20104;-68
2023/12/02 02:22:22;;;;;;;0.10;0.10;;;1.40;85.80;;;;;;5001746;28;20038;-69
2023/12/02 02:24:48;;;;;;;0.10;0.10;;;1.30;85.90;;;;;;5012806;28;20562;-68
2023/12/02 02:27:14;;;;;;;0.00;0.00;;;1.40;85.90;;;;;;5012268;28;20034;-69
2023/12/02 02:29:39;;;;;;;0.00;0.00;;;1.30;85.70;;;;;;5012342;28;20115;-69
2023/12/02 02:32:05;;;;;;;0.45;0.45;;;1.40;85.80;;;;;;5012374;28;20045;-69
2023/12/02 02:34:31;;;;;;;0.20;0.20;;;1.40;85.90;;;;;;5011833;28;20527;-68
2023/12/02 02:36:57;;;;;;;0.00;0.00;;;1.30;85.90;;;;;;5010608;28;20765;-69
2023/12/02 02:39:23;;;;;;;0.20;0.20;;;1.40;85.80;;;;;;5021823;28;20046;-68
2023/12/02 02:41:49;;;;;;;0.00;0.00;;;1.30;85.90;;;;;;5030891;28;20049;-68
2023/12/02 02:44:14;;;;;;;0.00;0.00;;;1.30;85.60;;;;;;5013857;28;20511;-68
2023/12/02 02:46:40;;;;;;;0.00;0.00;;;1.30;85.80;;;;;;5010219;28;20048;-69
2023/12/02 02:49:05;;;;;;;0.00;0.00;;;1.30;85.80;;;;;;5009101;28;20066;-69
2023/12/02 02:51:31;;;;;;;0.00;0.00;;;1.30;85.90;;;;;;5011378;28;20441;-68
2023/12/02 02:53:57;;;;;;;0.10;0.10;;;1.30;85.90;;;;;;5012397;28;20133;-68
2023/12/02 02:56:22;;;;;;;0.00;0.00;;;1.30;86.00;;;;;;5011283;28;20118;-68
2023/12/02 02:58:48;;;;;;;0.00;0.00;;;1.30;85.90;;;;;;5012325;28;20037;-68
2023/12/02 03:01:14;;;;;;;0.20;0.20;;;1.30;85.90;;;;;;4994407;28;20038;-69
2023/12/02 03:03:39;;;;;;;0.00;0.00;;;1.30;85.90;;;;;;5011175;28;20042;-68
2023/12/02 03:06:06;;;;;;;0.10;0.10;;;1.30;85.90;;;;;;5012635;28;20049;-68
2023/12/02 03:08:31;;;;;;;0.00;0.00;;;1.30;86.00;;;;;;5012596;28;20049;-69
2023/12/02 03:10:57;;;;;;;0.00;0.00;;;1.30;85.90;;;;;;5012636;28;20050;-68
2023/12/02 03:13:23;;;;;;;0.00;0.00;;;1.20;85.80;;;;;;5012162;28;20046;-68
2023/12/02 03:15:48;;;;;;;0.08;0.08;;;1.20;85.90;;;;;;5011875;28;20489;-68
2023/12/02 03:18:14;;;;;;;0.32;0.32;;;1.20;85.90;;;;;;4994285;28;20638;-69
2023/12/02 03:20:39;;;;;;;0.10;0.10;;;1.20;85.90;;;;;;5012161;28;20081;-68
2023/12/02 03:23:05;;;;;;;0.00;0.00;;;1.20;85.90;;;;;;5019329;28;20042;-68
2023/12/02 03:25:31;;;;;;;0.10;0.10;;;1.20;85.90;;;;;;5015384;28;20044;-69
2023/12/02 03:27:56;;;;;;;0.00;0.00;;;1.10;86.00;;;;;;5016338;28;20040;-69
2023/12/02 03:30:22;;;;;;;0.10;0.10;;;1.10;86.00;;;;;;5011872;28;20062;-68
2023/12/02 03:32:48;;;;;;;0.00;0.00;;;1.10;86.10;;;;;;5010878;28;20053;-68
2023/12/02 03:35:14;;;;;;;0.00;0.00;;;1.10;86.10;;;;;;5009978;28;20045;-68
2023/12/02 03:37:39;;;;;;;0.10;0.10;;;1.20;86.20;;;;;;5011831;28;20054;-68
2023/12/02 03:40:06;;;;;;;0.00;0.00;;;1.20;86.20;;;;;;5011844;28;20049;-68
2023/12/02 03:42:32;;;;;;;0.10;0.10;;;1.20;86.20;;;;;;5010821;28;20045;-68
2023/12/02 03:44:57;;;;;;;0.00;0.00;;;1.20;86.20;;;;;;5010563;28;20050;-68
2023/12/02 03:47:23;;;;;;;0.00;0.00;;;1.20;86.20;;;;;;5011823;28;20630;-68
2023/12/02 03:49:49;;;;;;;0.00;0.00;;;1.30;86.30;;;;;;4996846;28;20097;-68
2023/12/02 03:52:14;;;;;;;0.00;0.00;;;1.20;86.30;;;;;;5015822;28;20052;-68
2023/12/02 03:54:40;;;;;;;0.00;0.00;;;1.30;86.40;;;;;;5013951;28;20411;-69
2023/12/02 03:57:05;;;;;;;0.00;0.00;;;1.30;86.40;;;;;;5013997;28;20044;-68
2023/12/02 03:59:31;;;;;;;0.10;0.10;;;1.30;86.40;;;;;;5015749;28;20052;-69
2023/12/02 04:01:57;;;;;;;1.08;1.08;;;1.30;86.40;;;;;;5015356;28;20714;-68
2023/12/02 04:04:24;;;;;;;0.00;0.00;;;1.30;86.50;;;;;;5015172;28;20042;-69
2023/12/02 04:06:49;;;;;;;0.00;0.00;;;1.40;86.40;;;;;;5015095;28;20041;-69
2023/12/02 04:09:16;;;;;;;0.10;0.10;;;1.30;86.40;;;;;;5015516;28;20049;-68
2023/12/02 04:11:48;;;;;;;0.00;0.00;;;1.30;86.40;;;;;;5013159;28;20133;-69
2023/12/02 04:14:14;;;;;;;0.00;0.00;;;1.40;86.30;;;;;;5002223;28;20041;-68
2023/12/02 04:16:40;;;;;;;0.00;0.00;;;1.40;86.30;;;;;;5018757;28;20092;-69
2023/12/02 04:19:07;;;;;;;0.00;0.00;;;1.40;86.20;;;;;;5019033;28;20041;-69
2023/12/02 04:21:34;;;;;;;0.00;0.00;;;1.40;86.20;;;;;;5015267;28;20042;-69
2023/12/02 04:24:00;;;;;;;0.00;0.00;;;1.40;86.10;;;;;;5013469;28;20045;-68
2023/12/02 04:26:25;;;;;;;0.00;0.00;;;1.40;86.10;;;;;;5014204;28;20081;-69
2023/12/02 04:28:51;;;;;;;0.00;0.00;;;1.40;86.00;;;;;;5013337;28;20467;-68
2023/12/02 04:31:17;;;;;;;0.00;0.00;;;1.30;86.10;;;;;;5023898;28;20049;-69
2023/12/02 04:33:42;;;;;;;0.00;0.00;;;1.30;86.10;;;;;;5013199;28;20084;-69
2023/12/02 04:36:09;;;;;;;0.15;0.15;;;1.30;86.10;;;;;;5015511;28;20050;-69
2023/12/02 04:38:35;;;;;;;0.00;0.00;;;1.30;86.10;;;;;;5014712;28;20049;-69
2023/12/02 04:41:00;;;;;;;0.20;0.20;;;1.30;86.10;;;;;;5021656;28;20450;-68
2023/12/02 04:43:26;;;;;;;0.00;0.00;;;1.30;86.10;;;;;;5017669;28;20435;-69
2023/12/02 04:45:51;;;;;;;0.43;0.43;;;1.30;86.10;;;;;;5013763;28;20412;-68
2023/12/02 04:48:17;;;;;;;0.28;0.28;;;1.30;86.20;;;;;;5015301;28;20069;-69
2023/12/02 04:50:43;;;;;;;0.00;0.00;;;1.30;86.20;;;;;;5013675;28;20632;-68
2023/12/02 04:53:09;;;;;;;0.03;0.03;;;1.20;86.20;;;;;;5014364;28;20053;-69
2023/12/02 04:55:35;;;;;;;0.00;0.00;;;1.20;86.20;;;;;;5014335;28;20058;-68
2023/12/02 04:58:01;;;;;;;0.10;0.10;;;1.20;86.30;;;;;;5015339;28;20050;-69
2023/12/02 05:00:27;;;;;;;0.10;0.10;;;1.20;86.30;;;;;;5013964;28;20518;-68
2023/12/02 05:02:53;;;;;;;2.47;0.75;;;1.20;86.30;;;;;;5018234;28;20077;-68
2023/12/02 05:05:19;;;;;;;0.10;0.10;;;1.20;86.30;;;;;;5014145;28;20500;-67
2023/12/02 05:07:45;;;;;;;0.00;0.00;;;1.20;86.40;;;;;;5008666;28;20038;-68
2023/12/02 05:10:11;;;;;;;0.00;0.00;;;1.20;86.40;;;;;;5000589;28;20096;-69
2023/12/02 05:12:37;;;;;;;0.00;0.00;;;1.20;86.40;;;;;;5017534;28;20046;-69
2023/12/02 05:15:04;;;;;;;0.20;0.20;;;1.20;86.40;;;;;;5012078;28;20046;-69
2023/12/02 05:17:29;;;;;;;0.00;0.00;;;1.20;86.50;;;;;;5004361;28;20078;-69
2023/12/02 05:19:56;;;;;;;0.03;0.03;;;1.20;86.40;;;;;;5001623;28;20082;-69
2023/12/02 05:22:22;;;;;;;0.00;0.00;;;1.20;86.50;;;;;;5011674;28;20037;-69
2023/12/02 05:24:48;;;;;;;0.10;0.10;;;1.20;86.50;;;;;;5000515;28;20511;-69
2023/12/02 05:27:14;;;;;;;0.10;0.10;;;1.20;86.60;;;;;;5005874;28;20038;-68
2023/12/02 05:29:39;;;;;;;0.00;0.00;;;1.20;86.50;;;;;;5009175;28;20061;-68
2023/12/02 05:32:05;;;;;;;0.03;0.03;;;1.20;86.60;;;;;;5011855;28;20038;-68
2023/12/02 05:34:33;;;;;;;0.00;0.00;;;1.30;86.70;;;;;;5011307;28;20046;-68
2023/12/02 05:36:59;;;;;;;0.00;0.00;;;1.30;86.70;;;;;;5006532;28;20155;-68
2023/12/02 05:39:25;;;;;;;0.00;0.00;;;1.30;86.60;;;;;;5005597;28;20053;-67
2023/12/02 05:41:50;;;;;;;0.10;0.10;;;1.40;86.70;;;;;;5002056;28;20030;-68
2023/12/02 05:44:16;;;;;;;0.10;0.10;;;1.30;86.60;;;;;;5009807;28;20088;-68
2023/12/02 05:46:42;;;;;;;0.00;0.00;;;1.40;86.70;;;;;;5009250;28;20092;-68
2023/12/02 05:49:08;;;;;;;0.05;0.05;;;1.40;86.70;;;;;;5001389;28;20042;-68
2023/12/02 05:51:38;;;;;;;0.10;0.10;;;1.40;86.70;;;;;;5010914;28;20893;-69
2023/12/02 05:54:06;;;;;;;0.80;0.43;;;1.40;86.60;;;;;;5008509;28;20038;-68
2023/12/02 05:56:32;;;;;;;0.10;0.10;;;1.40;86.60;;;;;;5001946;28;20378;-69
2023/12/02 05:58:57;;;;;;;0.00;0.00;;;1.40;86.60;;;;;;5003612;28;20119;-69
2023/12/02 06:01:23;;;;;;;0.00;0.00;;;1.40;86.60;;;;;;5004935;28;20092;-69
2023/12/02 06:03:49;;;;;;;0.10;0.10;;;1.40;86.60;;;;;;5006563;28;20054;-68
2023/12/02 06:06:15;;;;;;;0.10;0.10;;;1.40;86.70;;;;;;5006464;28;20575;-69
2023/12/02 06:08:41;;;;;;;0.00;0.00;;;1.40;86.70;;;;;;5007867;28;20061;-69
2023/12/02 06:11:07;;;;;;;0.00;0.00;;;1.40;86.70;;;;;;5006329;28;20048;-69
2023/12/02 06:13:33;;;;;;;0.10;0.10;;;1.30;86.80;;;;;;5008556;28;20120;-69
2023/12/02 06:15:59;;;;;;;0.00;0.00;;;1.40;86.80;;;;;;5008490;28;20045;-68
2023/12/02 06:18:24;;;;;;;0.10;0.10;;;1.40;86.80;;;;;;5012251;28;20056;-69
2023/12/02 06:20:50;;;;;;;0.00;0.00;;;1.30;86.80;;;;;;5010376;28;20061;-69
2023/12/02 06:23:16;;;;;;;0.00;0.00;;;1.40;87.10;;;;;;5007497;28;20145;-68
2023/12/02 06:25:41;;;;;;;0.63;0.63;;;1.30;87.10;;;;;;5025664;28;20064;-68
2023/12/02 06:28:07;;;;;;;0.00;0.00;;;1.40;87.00;;;;;;5031477;28;20141;-68
2023/12/02 06:30:33;;;;;;;0.10;0.10;;;1.40;87.10;;;;;;5019987;28;20479;-68
2023/12/02 06:32:59;;;;;;;0.43;0.43;;;1.40;87.10;;;;;;5013804;28;20401;-69
2023/12/02 06:35:24;;;;;;;0.10;0.10;;;1.40;87.10;;;;;;5020726;28;20095;-69
2023/12/02 06:37:50;;;;;;;0.45;0.45;;;1.40;86.90;;;;;;5020903;28;20038;-69
2023/12/02 06:40:17;;;;;;;0.10;0.10;;;1.30;86.90;;;;;;5007608;28;20034;-68
2023/12/02 06:42:43;;;;;;;0.20;0.20;;;1.30;86.90;;;;;;5008791;28;20110;-68
2023/12/02 06:45:09;;;;;;;0.08;0.08;;;1.30;87.00;;;;;;5009111;28;20496;-68
2023/12/02 06:47:35;;;;;;;0.00;0.00;;;1.30;87.10;;;;;;5007922;28;20716;-69
2023/12/02 06:50:00;;;;;;;0.00;0.00;;;1.20;87.10;;;;;;5012316;28;20048;-69
2023/12/02 06:52:26;;;;;;;1.15;0.77;;;1.20;87.30;;;;;;5006207;28;20054;-69
2023/12/02 06:54:53;;;;;;;1.10;1.10;;;1.20;87.40;;;;;;5009332;28;20042;-69
2023/12/02 06:57:18;;;;;;;0.32;0.32;;;1.20;87.50;;;;;;5006884;28;20049;-69
2023/12/02 06:59:45;;;;;;;0.00;0.00;;;1.10;87.50;;;;;;5007963;28;20119;-70
2023/12/02 07:02:12;;;;;;;0.00;0.00;;;1.10;87.60;;;;;;5009953;28;20614;-69
2023/12/02 07:04:37;;;;;;;2.17;1.15;;;1.10;87.90;;;;;;5007445;28;20057;-69
2023/12/02 07:07:03;;;;;;;0.45;0.45;;;1.10;88.00;;;;;;5007807;28;20088;-68
2023/12/02 07:09:29;;;;;;;0.00;0.00;;;1.00;87.90;;;;;;5009034;28;20109;-69
2023/12/02 07:11:57;;;;;;;0.00;0.00;;;0.90;88.10;;;;;;5008026;28;20041;-68
2023/12/02 07:14:22;;;;;;;0.00;0.00;;;1.00;88.30;;;;;;5001681;28;20062;-67
2023/12/02 07:16:49;;;;;;;0.10;0.10;;;1.00;88.50;;;;;;5003726;28;20060;-67
2023/12/02 07:19:15;;;;;;;0.10;0.10;;;1.10;88.40;;;;;;5002388;28;20049;-66
2023/12/02 07:21:40;;;;;;;0.00;0.00;;;1.10;88.50;;;;;;5005033;28;20401;-67
2023/12/02 07:24:06;;;;;;;0.00;0.00;;;1.10;88.50;;;;;;5002969;28;20046;-68
2023/12/02 07:26:32;;;;;;;0.00;0.00;;;1.20;88.50;;;;;;4999535;28;20119;-67
2023/12/02 07:28:57;;;;;;;0.00;0.00;;;1.20;88.60;;;;;;5007981;28;20512;-67
2023/12/02 07:31:23;;;;;;;0.00;0.00;;;1.20;88.60;;;;;;5006552;28;20045;-65
2023/12/02 07:33:49;;;;;;;0.32;0.32;;;1.30;88.50;;;;;;5007294;28;20069;-67
2023/12/02 07:36:14;;;;;;;0.00;0.00;;;1.30;88.40;;;;;;5005819;28;20400;-68
2023/12/02 07:38:40;;;;;;;0.00;0.00;;;1.30;88.30;;;;;;5007750;28;20064;-66
2023/12/02 07:41:08;;;;;;;0.10;0.10;;;1.40;88.30;;;;;;5016018;28;20053;-68
2023/12/02 07:43:33;;;;;;;0.05;0.05;;;1.30;88.30;;;;;;5004421;28;20062;-67
2023/12/02 07:45:59;;;;;;;0.03;0.03;;;1.30;88.40;;;;;;5008098;28;20480;-68
2023/12/02 07:48:25;;;;;;;0.00;0.00;;;1.30;88.50;;;;;;5006323;28;20076;-68
2023/12/02 07:50:51;;;;;;;0.00;0.00;;;1.40;88.40;;;;;;5009741;28;20050;-68
2023/12/02 07:53:16;;;;;;;0.00;0.00;;;1.40;88.30;;;;;;5005031;28;20065;-68
2023/12/02 07:55:42;;;;;;;0.35;0.35;;;1.40;88.40;;;;;;4988412;28;20042;-68
2023/12/02 07:58:08;;;;;;;0.00;0.00;;;1.40;88.40;;;;;;5002167;28;20038;-68
2023/12/02 08:00:33;;;;;;;0.25;0.25;;;1.50;88.50;;;;;;4999303;28;20602;-68
2023/12/02 08:02:59;;;;;;;0.00;0.00;;;1.50;88.50;;;;;;4993407;28;20059;-68
2023/12/02 08:05:25;;;;;;;0.00;0.00;;;1.50;88.50;;;;;;4999054;28;20042;-68
2023/12/02 08:07:51;;;;;;;0.00;0.00;;;1.50;88.30;;;;;;4997021;28;20058;-67
2023/12/02 08:10:17;;;;;;;0.00;0.00;;;1.40;88.60;;;;;;4996333;28;20060;-67
2023/12/02 08:12:42;;;;;;;0.00;0.00;;;1.40;88.50;;;;;;4986187;28;20083;-67
2023/12/02 08:15:08;;;;;;;0.10;0.10;;;1.50;88.50;;;;;;5000493;28;20046;-67
2023/12/02 08:17:35;;;;;;;0.45;0.45;;;1.50;88.50;;;;;;5001315;28;20129;-67
2023/12/02 08:20:01;;;;;;;0.00;0.00;;;1.60;88.50;;;;;;5005260;28;20492;-67
2023/12/02 08:22:28;;;;;;;0.00;0.00;;;1.60;88.50;;;;;;5001395;28;20041;-68
2023/12/02 08:24:54;;;;;;;1.88;1.77;;;1.70;88.40;;;;;;4999932;28;20050;-68
2023/12/02 08:27:21;;;;;;;0.00;0.00;;;1.70;88.30;;;;;;5006872;28;20578;-67
2023/12/02 08:29:46;;;;;;;0.00;0.00;;;1.70;88.20;;;;;;4994792;28;20069;-68
2023/12/02 08:32:12;;;;;;;2.30;1.55;;;1.70;88.20;;;;;;4997043;28;20041;-67
2023/12/02 08:34:38;;;;;;;0.00;0.00;;;1.70;88.30;;;;;;5006853;28;20050;-67
2023/12/02 08:37:04;;;;;;;0.10;0.10;;;1.70;88.20;;;;;;5005158;28;20044;-67
2023/12/02 08:39:29;;;;;;;0.00;0.00;;;1.70;88.10;;;;;;5002791;28;20524;-67
2023/12/02 08:41:55;;;;;;;0.00;0.00;;;1.70;88.20;;;;;;5006730;28;20045;-68
2023/12/02 08:44:22;;;;;;;0.15;0.15;;;1.80;88.20;;;;;;5008830;28;20050;-67
2023/12/02 08:46:48;;;;;;;0.00;0.00;;;1.90;88.10;;;;;;5008829;28;20077;-67
2023/12/02 08:49:14;;;;;;;0.00;0.00;;;1.90;88.10;;;;;;5008424;28;20088;-68
2023/12/02 08:51:39;;;;;;;0.00;0.00;;;2.00;88.10;;;;;;5000162;28;20401;-67
2023/12/02 08:54:05;;;;;;;0.00;0.00;;;2.00;88.00;;;;;;5002256;28;20057;-68
2023/12/02 08:56:31;;;;;;;0.10;0.10;;;2.10;87.90;;;;;;5006089;28;20086;-68
2023/12/02 08:58:57;;;;;;;0.00;0.00;;;2.10;87.80;;;;;;5005100;28;20061;-68
2023/12/02 09:01:23;;;;;;;0.10;0.10;;;2.10;87.70;;;;;;5004929;28;20060;-68
2023/12/02 09:03:49;;;;;;;0.00;0.00;;;2.10;87.90;;;;;;4997147;28;20932;-68
2023/12/02 09:06:14;;;;;;;0.00;0.00;;;2.20;87.80;;;;;;4996048;28;20046;-68
2023/12/02 09:08:40;;;;;;;0.00;0.00;;;2.20;87.70;;;;;;4990223;28;20094;-68
2023/12/02 09:11:06;;;;;;;0.00;0.00;;;2.20;87.40;;;;;;4988101;28;20042;-67
2023/12/02 09:13:44;;;;;;;0.00;0.00;;;2.20;87.40;;;;;;5000775;28;20076;-68
2023/12/02 09:16:20;;;;;;;0.10;0.10;;;2.20;87.40;;;;;;5009644;28;20139;-68
2023/12/02 09:18:46;;;;;;;0.10;0.10;;;2.20;87.30;;;;;;5002819;28;20045;-68
2023/12/02 09:21:20;;;;;;;0.00;0.00;;;2.20;86.70;;;;;;5000506;28;20046;-68
2023/12/02 09:23:50;;;;;;;0.13;0.13;;;2.20;87.10;;;;;;5000277;28;20086;-68
2023/12/02 09:26:29;;;;;;;0.00;0.00;;;2.30;87.00;;;;;;5002508;28;20061;-67
2023/12/02 09:28:55;;;;;;;0.00;0.00;;;2.20;86.90;;;;;;5006706;28;20069;-67
2023/12/02 09:31:21;;;;;;;0.17;0.17;;;2.30;86.80;;;;;;4996150;28;20104;-68
2023/12/02 09:33:56;;;;;;;0.00;0.00;;;2.30;86.70;;;;;;5007589;28;20077;-68
2023/12/02 09:36:39;;;;;;;0.68;0.68;;;2.30;86.30;;;;;;5010566;28;20050;-68
2023/12/02 09:39:16;;;;;;;0.00;0.00;;;2.30;86.60;;;;;;5008722;28;20129;-68
2023/12/02 09:41:54;;;;;;;0.30;0.30;;;2.40;86.60;;;;;;5008154;28;20566;-68
2023/12/02 09:44:24;;;;;;;2.45;0.85;;;2.40;86.60;;;;;;5017084;28;20061;-68
2023/12/02 09:47:03;;;;;;;0.30;0.30;;;2.50;86.70;;;;;;5014339;28;20407;-68
2023/12/02 09:49:42;;;;;;;1.48;0.63;;;2.50;86.90;;;;;;5019311;28;20133;-67
2023/12/02 09:52:27;;;;;;;0.05;0.05;;;2.50;87.10;;;;;;5007050;28;20373;-67
2023/12/02 09:55:03;;;;;;;0.55;0.45;;;2.60;87.10;;;;;;5006834;28;20054;-67
2023/12/02 09:57:29;;;;;;;0.00;0.00;;;2.60;87.30;;;;;;5003521;28;20084;-66
2023/12/02 10:00:25;;;;;;;0.05;0.05;;;2.70;87.30;;;;;;5007859;28;20038;-66
2023/12/02 10:03:03;;;;;;;0.75;0.75;;;2.70;87.50;;;;;;4979934;28;20062;-66
2023/12/02 10:05:49;;;;;;;0.00;0.00;;;2.80;87.70;;;;;;5005975;28;20191;-66
2023/12/02 10:08:31;;;;;;;0.00;0.00;;;2.80;87.70;;;;;;5007101;28;20107;-66
2023/12/02 10:11:07;;;;;;;;;;;2.80;87.80;;;;;;5006060;28;20080;-66
2023/12/02 10:13:43;;;;;;;0.00;0.00;;;2.80;88.10;;;;;;5004752;28;19936;-66
2023/12/02 10:16:14;;;;;;;0.00;0.00;;;2.80;88.20;;;;;;5005191;28;20061;-66
2023/12/02 10:18:51;;;;;;;0.00;0.00;;;2.80;88.30;;;;;;4998226;28;20466;-68
2023/12/02 10:21:20;;;;;;;0.00;0.00;;;2.90;88.30;;;;;;4998279;28;20113;-68
2023/12/02 10:24:02;;;;;;;0.10;0.10;;;2.90;88.30;;;;;;4999446;28;20107;-68
2023/12/02 10:26:32;;;;;;;0.00;0.00;;;3.00;88.30;;;;;;4997250;28;20050;-68
2023/12/02 10:29:07;;;;;;;0.00;0.00;;;3.00;88.20;;;;;;4999677;28;20050;-67
2023/12/02 10:31:35;;;;;;;0.00;0.00;;;3.10;88.40;;;;;;5006166;28;20046;-69
2023/12/02 10:34:31;;;;;;;0.00;0.00;;;3.00;88.00;;;;;;4998805;28;20791;-65
2023/12/02 10:37:02;;;;;;;0.00;0.00;;;3.00;88.40;;;;;;5002571;28;20037;-65
2023/12/02 10:39:37;;;;;;;0.00;0.00;;;3.10;88.30;;;;;;4997617;28;20145;-65
2023/12/02 10:42:03;;;;;;;0.00;0.00;;;3.10;88.00;;;;;;5000558;28;20108;-66
2023/12/02 10:44:33;;;;;;;0.28;0.28;;;3.10;88.30;;;;;;5006998;28;20065;-66
2023/12/02 10:47:00;;;;;;;0.00;0.00;;;3.10;88.40;;;;;;5003227;28;20096;-64
2023/12/02 10:49:30;;;;;;;0.10;0.10;;;3.20;88.40;;;;;;4991601;28;20496;-66
2023/12/02 10:51:58;;;;;;;0.43;0.43;;;3.10;88.30;;;;;;4997588;28;20046;-66
2023/12/02 10:54:32;;;;;;;0.00;0.00;;;3.20;88.20;;;;;;5003201;28;20120;-66
2023/12/02 10:57:06;;;;;;;0.00;0.00;;;3.10;88.40;;;;;;5001003;28;20054;-63
2023/12/02 10:59:38;;;;;;;0.00;0.00;;;3.10;88.40;;;;;;5002518;28;20046;-63
2023/12/02 11:02:25;;;;;;;0.00;0.00;;;3.20;88.50;;;;;;4983204;28;20050;-64
2023/12/02 11:05:03;;;;;;;0.00;0.00;;;3.10;88.60;;;;;;4996231;28;20129;-65
2023/12/02 11:07:31;;;;;;;0.00;0.00;;;3.10;88.70;;;;;;5000584;28;20072;-63
2023/12/02 11:10:05;;;;;;;0.38;0.38;;;3.10;88.80;;;;;;4997177;28;20038;-63
2023/12/02 11:12:55;;;;;;;0.00;0.00;;;3.20;88.70;;;;;;5002414;28;20046;-64
2023/12/02 11:15:27;;;;;;;0.00;0.00;;;3.20;88.80;;;;;;5002096;28;20053;-64
2023/12/02 11:18:03;;;;;;;0.00;0.00;;;3.20;88.80;;;;;;5003305;28;20098;-65
2023/12/02 11:20:35;;;;;;;0.00;0.00;;;3.20;88.80;;;;;;5000771;28;20108;-65
2023/12/02 11:23:00;;;;;;;0.10;0.10;;;3.20;88.80;;;;;;4995966;28;20508;-65
2023/12/02 11:26:04;;;;;;;0.10;0.10;;;3.20;88.80;;;;;;5005728;28;20055;-65
2023/12/02 11:28:54;;;;;;;0.00;0.00;;;3.20;88.80;;;;;;4985475;28;20883;-65
2023/12/02 11:31:38;;;;;;;0.00;0.00;;;3.20;88.70;;;;;;5006147;28;20034;-65
2023/12/02 11:34:19;;;;;;;0.10;0.10;;;3.40;88.80;;;;;;5004659;28;20124;-65
2023/12/02 11:37:15;;;;;;;0.00;0.00;;;3.40;88.70;;;;;;4999147;28;20053;-64
2023/12/02 11:39:43;;;;;;;0.00;0.00;;;3.40;88.60;;;;;;5006206;28;20057;-65
2023/12/02 11:42:17;;;;;;;0.03;0.03;;;3.40;88.60;;;;;;5000181;28;20056;-65
2023/12/02 11:45:04;;;;;;;0.00;0.00;;;3.40;88.50;;;;;;5005350;28;20053;-65
2023/12/02 11:48:03;;;;;;;0.17;0.17;;;3.50;88.50;;;;;;5006135;28;20057;-65
2023/12/02 11:50:34;;;;;;;0.00;0.00;;;3.50;88.40;;;;;;4987123;28;20121;-65
2023/12/02 11:53:06;;;;;;;0.00;0.00;;;3.50;88.40;;;;;;5006129;28;20046;-64
2023/12/02 11:55:37;;;;;;;;;;;3.60;88.50;;;;;;5001244;28;20472;-65
2023/12/02 11:58:12;;;;;;;0.00;0.00;;;3.60;88.30;;;;;;5011311;28;19928;-65
2023/12/02 12:01:08;;;;;;;0.00;0.00;;;3.70;89.00;;;;;;5018877;28;20045;-65
2023/12/02 12:03:47;;;;;;;0.40;0.40;;;3.80;88.80;;;;;;5003746;28;20057;-66
2023/12/02 12:06:43;;;;;;;0.10;0.10;;;3.80;88.50;;;;;;5004437;28;20045;-66
2023/12/02 16:05:11;;;;;;;0.40;0.40;;;3.10;87.80;;;;;;4865524;23;20033;-75
2023/12/02 16:07:38;;;;;;;0.10;0.10;;;4.20;90.20;;;;;;5040497;23;20496;-72
2023/12/02 16:10:06;;;;;;;0.00;0.00;;;4.20;89.50;;;;;;5041879;23;20041;-73
2023/12/02 16:12:33;;;;;;;0.25;0.25;;;4.10;89.10;;;;;;5038596;28;20127;-72
2023/12/02 16:14:58;;;;;;;0.00;0.00;;;3.90;88.60;;;;;;5042637;28;20140;-73
2023/12/02 16:17:24;;;;;;;0.05;0.05;;;3.70;88.10;;;;;;5044883;28;20132;-72
2023/12/02 16:19:50;;;;;;;0.10;0.10;;;5.80;96.10;;;;;;5062539;28;20501;-72
2023/12/02 16:22:17;;;;;;;0.10;0.10;;;5.20;90.80;;;;;;5062729;28;20044;-72
2023/12/02 16:24:42;;;;;;;0.05;0.05;;;4.80;89.90;;;;;;5034886;28;20052;-71
2023/12/02 16:27:08;;;;;;;0.00;0.00;;;4.50;88.60;;;;;;5055342;28;20056;-71
2023/12/02 16:29:34;;;;;;;0.00;0.00;;;4.20;88.90;;;;;;5070859;28;20396;-72
2023/12/02 16:32:01;;;;;;;0.00;0.00;;;4.10;88.80;;;;;;5064938;28;20067;-71
2023/12/02 16:34:26;;;;;;;0.00;0.00;;;4.00;88.70;;;;;;5056917;28;20256;-72
2023/12/02 16:36:52;;;;;;;0.00;0.00;;;3.90;88.80;;;;;;5060234;28;20040;-71
2023/12/02 16:39:18;;;;;;;0.05;0.05;;;3.80;88.70;;;;;;5042969;28;20529;-71
2023/12/02 16:41:44;;;;;;;0.90;0.90;;;3.80;88.70;;;;;;5043013;28;20040;-71
2023/12/02 16:44:10;;;;;;;0.00;0.00;;;3.70;88.70;;;;;;5063437;28;20063;-71
2023/12/02 16:46:40;;;;;;;0.00;0.00;;;3.70;88.70;;;;;;5036407;28;20123;-72
2023/12/02 16:49:14;;;;;;;0.00;0.00;;;3.60;88.60;;;;;;5049691;28;20569;-71
2023/12/02 16:51:43;;;;;;;0.00;0.00;;;3.50;88.60;;;;;;5053876;28;20083;-71
2023/12/02 16:54:10;;;;;;;0.00;0.00;;;3.40;88.60;;;;;;5049356;28;20078;-71
2023/12/02 16:56:35;;;;;;;0.10;0.10;;;3.30;88.40;;;;;;5048833;28;20092;-71
2023/12/02 16:59:02;;;;;;;0.43;0.43;;;3.20;88.20;;;;;;5058414;28;20056;-70